createdAt,value
2022-09-17T00:01:42.897Z,99460.41
2022-09-17T00:04:11.780Z,99463.06
2022-09-17T00:06:41.587Z,99460.72
2022-09-17T00:09:10.578Z,99457.47
2022-09-17T00:11:41.097Z,99462.53
2022-09-17T00:14:14.649Z,99469.34
2022-09-17T00:16:45.389Z,99460.91
2022-09-17T00:19:15.368Z,99466.50
2022-09-17T00:21:43.831Z,99465.59
2022-09-17T00:24:13.816Z,99468.25
2022-09-17T00:26:42.158Z,99468.25
2022-09-17T00:29:13.037Z,99465.91
2022-09-17T00:31:41.801Z,99459.03
2022-09-17T00:34:10.227Z,99459.16
2022-09-17T00:36:40.236Z,99454.97
2022-09-17T00:39:10.547Z,99465.50
2022-09-17T00:41:39.869Z,99463.06
2022-09-17T00:44:48.194Z,99464.66
2022-09-17T00:47:21.527Z,99466.06
2022-09-17T00:49:52.526Z,99462.22
2022-09-17T00:52:24.815Z,99462.47
2022-09-17T00:54:57.809Z,99467.66
2022-09-17T00:57:26.125Z,99472.25
2022-09-17T00:59:57.224Z,99466.06
2022-09-17T01:02:26.696Z,99464.59
2022-09-17T01:04:56.186Z,99475.34
2022-09-17T01:07:37.822Z,99464.44
2022-09-17T01:10:15.562Z,99462.75
2022-09-17T01:13:05.391Z,99468.81
2022-09-17T01:15:42.445Z,99465.06
2022-09-17T01:18:37.405Z,99472.63
2022-09-17T01:21:38.350Z,99479.06
2022-09-17T01:24:45.913Z,99472.19
2022-09-17T01:27:45.783Z,99472.94
2022-09-17T01:30:22.930Z,99475.63
2022-09-17T01:32:58.281Z,99479.12
2022-09-17T01:35:34.241Z,99481.97
2022-09-17T01:38:11.006Z,99482.22
2022-09-17T01:40:47.909Z,99490.06
2022-09-17T01:43:24.577Z,99495.16
2022-09-17T01:45:57.005Z,99487.78
2022-09-17T01:48:30.300Z,99486.16
2022-09-17T01:51:05.122Z,99494.50
2022-09-17T01:53:42.542Z,99490.00
2022-09-17T01:56:14.560Z,99490.59
2022-09-17T01:58:47.923Z,99488.91
2022-09-17T02:01:20.175Z,99493.94
2022-09-17T02:03:57.240Z,99497.84
2022-09-17T02:06:30.187Z,99496.47
2022-09-17T02:09:02.534Z,99501.12
2022-09-17T02:11:37.062Z,99498.00
2022-09-17T02:14:09.123Z,99501.00
2022-09-17T02:16:40.880Z,99496.47
2022-09-17T02:19:14.177Z,99502.50
2022-09-17T02:21:48.025Z,99515.66
2022-09-17T02:24:20.835Z,99515.13
2022-09-17T02:26:56.977Z,99513.13
2022-09-17T02:29:32.100Z,99507.19
2022-09-17T02:32:00.973Z,99514.22
2022-09-17T02:34:30.775Z,99513.72
2022-09-17T02:37:00.335Z,99508.38
2022-09-17T02:39:29.386Z,99510.28
2022-09-17T02:42:07.139Z,99502.56
2022-09-17T02:44:46.311Z,99512.03
2022-09-17T02:47:54.413Z,99510.88
2022-09-17T02:50:38.508Z,99498.87
2022-09-17T02:53:26.174Z,99499.75
2022-09-17T02:56:04.493Z,99501.84
2022-09-17T02:58:42.251Z,99495.66
2022-09-17T03:01:18.123Z,99501.84
2022-09-17T03:03:50.282Z,99498.56
2022-09-17T03:06:20.162Z,99501.44
2022-09-17T03:08:48.916Z,99497.50
2022-09-17T03:11:16.837Z,99494.81
2022-09-17T03:13:45.035Z,99491.47
2022-09-17T03:16:13.121Z,99495.19
2022-09-17T03:18:41.254Z,99493.94
2022-09-17T03:21:09.610Z,99492.53
2022-09-17T03:23:39.847Z,99489.84
2022-09-17T03:26:07.792Z,99496.59
2022-09-17T03:28:35.916Z,99499.44
2022-09-17T03:31:05.681Z,99494.41
2022-09-17T03:33:33.854Z,99499.72
2022-09-17T03:36:02.495Z,99513.19
2022-09-17T03:38:30.512Z,99519.41
2022-09-17T03:41:01.548Z,99511.69
2022-09-17T03:43:30.157Z,99514.09
2022-09-17T03:45:58.214Z,99508.06
2022-09-17T03:48:26.131Z,99508.06
2022-09-17T03:50:54.275Z,99513.84
2022-09-17T03:53:23.700Z,99514.66
2022-09-17T03:56:02.815Z,99506.34
2022-09-17T03:58:32.252Z,99512.38
2022-09-17T04:01:00.457Z,99500.63
2022-09-17T04:03:29.525Z,99504.94
2022-09-17T04:05:57.612Z,99508.91
2022-09-17T04:08:25.604Z,99508.06
2022-09-17T04:10:53.912Z,99513.41
2022-09-17T04:13:23.168Z,99514.81
2022-09-17T04:15:52.068Z,99516.94
2022-09-17T04:18:20.448Z,99514.59
2022-09-17T04:20:48.387Z,99511.34
2022-09-17T04:23:16.294Z,99515.94
2022-09-17T04:25:44.477Z,99516.53
2022-09-17T04:28:12.691Z,99517.38
2022-09-17T04:30:42.982Z,99519.75
2022-09-17T04:33:12.159Z,99519.06
2022-09-17T04:35:40.161Z,99524.97
2022-09-17T04:38:08.052Z,99517.62
2022-09-17T04:40:36.491Z,99524.22
2022-09-17T04:43:04.458Z,99522.22
2022-09-17T04:45:33.593Z,99529.19
2022-09-17T04:48:03.897Z,99536.59
2022-09-17T04:50:52.277Z,99531.34
2022-09-17T04:53:21.255Z,99541.47
2022-09-17T04:55:49.130Z,99547.09
2022-09-17T04:58:17.062Z,99554.97
2022-09-17T05:00:45.350Z,99548.50
2022-09-17T05:03:14.701Z,99555.91
2022-09-17T05:05:42.582Z,99553.94
2022-09-17T05:08:10.698Z,99554.69
2022-09-17T05:10:38.690Z,99558.81
2022-09-17T05:13:06.661Z,99560.47
2022-09-17T05:15:34.792Z,99558.22
2022-09-17T05:18:02.949Z,99564.56
2022-09-17T05:20:32.171Z,99572.75
2022-09-17T05:23:00.365Z,99578.00
2022-09-17T05:25:28.344Z,99567.19
2022-09-17T05:27:56.383Z,99564.03
2022-09-17T05:30:24.789Z,99571.44
2022-09-17T05:33:00.537Z,99573.16
2022-09-17T05:35:29.152Z,99578.41
2022-09-17T05:38:03.815Z,99583.81
2022-09-17T05:40:32.825Z,99588.31
2022-09-17T05:43:02.109Z,99587.81
2022-09-17T05:45:30.582Z,99590.31
2022-09-17T05:48:00.054Z,99593.06
2022-09-17T05:50:29.548Z,99610.78
2022-09-17T05:52:59.287Z,99603.97
2022-09-17T05:55:29.135Z,99605.13
2022-09-17T05:57:57.017Z,99612.19
2022-09-17T06:00:25.060Z,99605.97
2022-09-17T06:02:56.386Z,99604.31
2022-09-17T06:05:28.603Z,99622.25
2022-09-17T06:07:57.301Z,99614.47
2022-09-17T06:10:25.329Z,99614.03
2022-09-17T06:12:57.989Z,99618.09
2022-09-17T06:15:27.502Z,99612.16
2022-09-17T06:17:58.046Z,99616.59
2022-09-17T06:20:26.422Z,99613.34
2022-09-17T06:22:57.596Z,99621.38
2022-09-17T06:25:26.585Z,99625.59
2022-09-17T06:27:54.848Z,99623.72
2022-09-17T06:30:24.230Z,99631.50
2022-09-17T06:32:52.082Z,99629.00
2022-09-17T06:35:22.325Z,99627.22
2022-09-17T06:37:50.458Z,99625.84
2022-09-17T06:40:18.692Z,99624.72
2022-09-17T06:42:47.114Z,99627.44
2022-09-17T06:45:16.925Z,99617.69
2022-09-17T06:47:46.530Z,99617.22
2022-09-17T06:50:14.956Z,99627.72
2022-09-17T06:52:50.204Z,99621.59
2022-09-17T06:55:18.946Z,99619.13
2022-09-17T06:57:46.918Z,99629.41
2022-09-17T07:00:19.083Z,99623.19
2022-09-17T07:02:57.703Z,99620.28
2022-09-17T07:05:26.011Z,99614.69
2022-09-17T07:07:54.647Z,99617.44
2022-09-17T07:10:24.236Z,99622.16
2022-09-17T07:12:52.175Z,99624.22
2022-09-17T07:15:20.536Z,99615.50
2022-09-17T07:17:48.444Z,99627.25
2022-09-17T07:20:18.081Z,99626.47
2022-09-17T07:22:46.720Z,99621.91
2022-09-17T07:25:15.926Z,99630.63
2022-09-17T07:27:43.801Z,99624.09
2022-09-17T07:30:13.507Z,99638.34
2022-09-17T07:32:41.937Z,99639.31
2022-09-17T07:35:10.239Z,99634.84
2022-09-17T07:37:40.017Z,99637.44
2022-09-17T07:40:09.298Z,99639.78
2022-09-17T07:42:37.446Z,99638.41
2022-09-17T07:45:06.674Z,99640.84
2022-09-17T07:47:39.861Z,99634.53
2022-09-17T07:50:09.534Z,99645.91
2022-09-17T07:52:46.869Z,99640.00
2022-09-17T07:55:15.973Z,99635.16
2022-09-17T07:57:44.090Z,99642.16
2022-09-17T08:00:14.450Z,99648.63
2022-09-17T08:02:44.078Z,99645.66
2022-09-17T08:05:12.343Z,99644.81
2022-09-17T08:07:41.653Z,99651.19
2022-09-17T08:10:10.784Z,99643.09
2022-09-17T08:12:38.906Z,99652.63
2022-09-17T08:15:08.011Z,99643.97
2022-09-17T08:17:37.999Z,99644.88
2022-09-17T08:20:07.338Z,99651.88
2022-09-17T08:22:35.432Z,99645.88
2022-09-17T08:25:05.588Z,99661.28
2022-09-17T08:27:33.872Z,99658.59
2022-09-17T08:30:02.023Z,99658.00
2022-09-17T08:32:31.355Z,99655.94
2022-09-17T08:34:59.659Z,99671.63
2022-09-17T08:37:29.825Z,99667.81
2022-09-17T08:39:58.663Z,99661.28
2022-09-17T08:42:34.599Z,99674.59
2022-09-17T08:45:05.027Z,99673.56
2022-09-17T08:47:37.724Z,99668.47
2022-09-17T08:50:08.441Z,99671.72
2022-09-17T08:53:08.971Z,99668.13
2022-09-17T08:55:43.704Z,99676.00
2022-09-17T08:58:29.123Z,99670.81
2022-09-17T09:01:05.700Z,99687.53
2022-09-17T09:03:49.786Z,99695.09
2022-09-17T09:06:21.676Z,99685.25
2022-09-17T09:08:53.066Z,99696.59
2022-09-17T09:11:26.547Z,99688.00
2022-09-17T09:14:01.438Z,99690.16
2022-09-17T09:16:33.524Z,99697.63
2022-09-17T09:19:15.582Z,99694.84
2022-09-17T09:21:55.087Z,99695.09
2022-09-17T09:24:26.195Z,99694.16
2022-09-17T09:27:02.260Z,99697.94
2022-09-17T09:29:41.683Z,99701.00
2022-09-17T09:32:25.618Z,99694.03
2022-09-17T09:34:56.974Z,99691.75
2022-09-17T09:37:27.976Z,99692.47
2022-09-17T09:40:02.122Z,99699.19
2022-09-17T09:42:32.233Z,99707.09
2022-09-17T09:45:05.571Z,99711.97
2022-09-17T09:47:45.980Z,99711.94
2022-09-17T09:50:48.365Z,99711.87
2022-09-17T09:53:27.078Z,99714.66
2022-09-17T09:56:06.980Z,99716.91
2022-09-17T09:58:37.560Z,99721.97
2022-09-17T10:01:13.888Z,99711.53
2022-09-17T10:03:46.086Z,99722.88
2022-09-17T10:06:15.443Z,99716.03
2022-09-17T10:09:12.109Z,99719.37
2022-09-17T10:11:40.596Z,99721.06
2022-09-17T10:14:27.021Z,99715.84
2022-09-17T10:17:12.901Z,99712.97
2022-09-17T10:19:41.767Z,99717.19
2022-09-17T10:22:21.584Z,99714.81
2022-09-17T10:24:53.009Z,99712.47
2022-09-17T10:27:23.663Z,99711.25
2022-09-17T10:30:04.204Z,99708.06
2022-09-17T10:32:32.177Z,99703.03
2022-09-17T10:35:05.256Z,99709.19
2022-09-17T10:37:36.504Z,99697.69
2022-09-17T10:40:28.034Z,99697.00
2022-09-17T10:43:22.879Z,99705.91
2022-09-17T10:46:00.703Z,99703.22
2022-09-17T10:48:33.737Z,99698.19
2022-09-17T10:51:03.436Z,99702.03
2022-09-17T10:53:31.354Z,99701.19
2022-09-17T10:56:14.987Z,99688.59
2022-09-17T10:58:53.603Z,99694.63
2022-09-17T11:01:37.449Z,99689.44
2022-09-17T11:04:27.477Z,99681.63
2022-09-17T11:07:21.136Z,99683.44
2022-09-17T11:09:57.491Z,99687.44
2022-09-17T11:12:42.042Z,99686.94
2022-09-17T11:15:23.539Z,99679.31
2022-09-17T11:18:15.808Z,99681.16
2022-09-17T11:21:08.399Z,99680.72
2022-09-17T11:23:56.070Z,99684.19
2022-09-17T11:26:33.590Z,99676.50
2022-09-17T11:29:17.880Z,99674.03
2022-09-17T11:34:29.746Z,99684.28
2022-09-17T11:37:05.598Z,99678.47
2022-09-17T11:39:39.471Z,99675.56
2022-09-17T11:42:13.331Z,99671.34
2022-09-17T11:44:49.856Z,99666.00
2022-09-17T11:47:22.608Z,99672.59
2022-09-17T11:49:55.967Z,99656.94
2022-09-17T11:52:27.428Z,99662.66
2022-09-17T11:55:01.509Z,99649.06
2022-09-17T11:57:33.904Z,99648.75
2022-09-17T12:00:07.690Z,99642.09
2022-09-17T12:02:49.610Z,99646.47
2022-09-17T12:05:20.885Z,99656.78
2022-09-17T12:07:55.389Z,99636.44
2022-09-17T12:10:37.211Z,99640.34
2022-09-17T12:13:17.680Z,99635.47
2022-09-17T12:15:53.345Z,99635.66
2022-09-17T12:18:34.899Z,99639.41
2022-09-17T12:21:09.286Z,99632.50
2022-09-17T12:23:41.762Z,99626.16
2022-09-17T12:26:22.198Z,99623.28
2022-09-17T12:28:59.258Z,99627.31
2022-09-17T12:31:37.373Z,99620.78
2022-09-17T12:34:23.811Z,99618.34
2022-09-17T12:37:03.302Z,99622.53
2022-09-17T12:40:09.618Z,99615.28
2022-09-17T12:42:57.904Z,99619.56
2022-09-17T12:45:40.109Z,99617.38
2022-09-17T12:48:39.281Z,99608.22
2022-09-17T12:51:25.402Z,99609.44
2022-09-17T12:54:06.481Z,99613.88
2022-09-17T12:56:51.102Z,99607.81
2022-09-17T12:59:20.808Z,99607.75
2022-09-17T13:01:54.006Z,99614.50
2022-09-17T13:04:59.903Z,99595.44
2022-09-17T13:08:09.016Z,99607.00
2022-09-17T13:10:46.197Z,99611.31
2022-09-17T13:13:29.351Z,99609.12
2022-09-17T13:16:08.416Z,99604.75
2022-09-17T13:19:15.022Z,99593.50
2022-09-17T13:21:50.110Z,99594.19
2022-09-17T13:24:25.693Z,99595.44
2022-09-17T13:26:58.177Z,99588.38
2022-09-17T13:30:01.213Z,99588.25
2022-09-17T13:32:49.887Z,99586.97
2022-09-17T13:35:50.011Z,99605.50
2022-09-17T13:38:23.699Z,99592.09
2022-09-17T13:40:53.252Z,99590.31
2022-09-17T13:43:27.118Z,99578.09
2022-09-17T13:46:12.762Z,99585.41
2022-09-17T13:48:51.033Z,99585.16
2022-09-17T13:51:52.840Z,99578.53
2022-09-17T13:54:25.692Z,99578.47
2022-09-17T13:57:10.072Z,99589.78
2022-09-17T13:59:39.186Z,99593.81
2022-09-17T14:02:36.322Z,99586.19
2022-09-17T14:05:34.487Z,99586.81
2022-09-17T14:08:28.565Z,99586.09
2022-09-17T14:11:01.049Z,99573.87
2022-09-17T14:13:50.917Z,99573.63
2022-09-17T14:16:35.706Z,99592.31
2022-09-17T14:19:19.504Z,99587.31
2022-09-17T14:21:59.613Z,99578.62
2022-09-17T14:24:33.462Z,99587.50
2022-09-17T14:27:12.956Z,99575.16
2022-09-17T14:30:00.330Z,99582.19
2022-09-17T14:32:32.326Z,99573.31
2022-09-17T14:35:02.356Z,99576.72
2022-09-17T14:37:30.876Z,99578.03
2022-09-17T14:40:00.022Z,99565.84
2022-09-17T14:42:35.665Z,99567.03
2022-09-17T14:45:09.320Z,99561.44
2022-09-17T14:47:37.305Z,99562.66
2022-09-17T14:50:21.545Z,99556.78
2022-09-17T14:52:50.758Z,99561.34
2022-09-17T14:55:21.198Z,99573.09
2022-09-17T14:57:53.931Z,99580.41
2022-09-17T15:00:25.076Z,99584.19
2022-09-17T15:02:55.786Z,99582.37
2022-09-17T15:05:27.146Z,99573.94
2022-09-17T15:08:07.818Z,99585.84
2022-09-17T15:10:37.237Z,99587.97
2022-09-17T15:13:14.657Z,99590.03
2022-09-17T15:15:53.886Z,99587.28
2022-09-17T15:18:23.147Z,99589.16
2022-09-17T15:21:01.896Z,99587.47
2022-09-17T15:23:37.603Z,99585.78
2022-09-17T15:26:07.146Z,99593.06
2022-09-17T15:28:40.061Z,99591.56
2022-09-17T15:31:18.056Z,99590.56
2022-09-17T15:33:47.372Z,99591.94
2022-09-17T15:36:21.477Z,99587.53
2022-09-17T15:38:50.176Z,99586.88
2022-09-17T15:41:28.259Z,99591.94
2022-09-17T15:44:28.371Z,99594.47
2022-09-17T15:46:56.847Z,99595.00
2022-09-17T15:49:31.346Z,99598.66
2022-09-17T15:52:32.874Z,99603.69
2022-09-17T15:55:01.067Z,99614.41
2022-09-17T15:57:32.324Z,99614.25
2022-09-17T16:00:13.894Z,99618.13
2022-09-17T16:02:42.198Z,99622.88
2022-09-17T16:05:51.826Z,99609.53
2022-09-17T16:08:25.363Z,99626.16
2022-09-17T16:10:56.649Z,99626.53
2022-09-17T16:13:30.451Z,99621.81
2022-09-17T16:16:00.154Z,99638.84
2022-09-17T16:18:28.432Z,99641.81
2022-09-17T16:20:56.354Z,99643.19
2022-09-17T16:23:24.819Z,99644.53
2022-09-17T16:25:52.995Z,99639.47
2022-09-17T16:28:24.579Z,99647.06
2022-09-17T16:30:53.198Z,99651.44
2022-09-17T16:33:22.451Z,99654.59
2022-09-17T16:36:03.531Z,99649.38
2022-09-17T16:38:36.615Z,99657.78
2022-09-17T16:41:08.151Z,99642.00
2022-09-17T16:43:36.284Z,99636.34
2022-09-17T16:46:06.728Z,99636.41
2022-09-17T16:48:49.373Z,99637.38
2022-09-17T16:51:20.840Z,99638.38
2022-09-17T16:53:50.091Z,99643.87
2022-09-17T16:56:18.317Z,99644.47
2022-09-17T16:58:46.319Z,99639.12
2022-09-17T17:01:16.395Z,99652.56
2022-09-17T17:03:54.927Z,99654.69
2022-09-17T17:06:23.172Z,99661.81
2022-09-17T17:08:51.792Z,99656.75
2022-09-17T17:11:20.005Z,99653.41
2022-09-17T17:13:48.319Z,99654.28
2022-09-17T17:16:16.640Z,99653.31
2022-09-17T17:18:46.136Z,99650.25
2022-09-17T17:21:15.388Z,99655.50
2022-09-17T17:23:44.449Z,99658.44
2022-09-17T17:26:12.255Z,99658.84
2022-09-17T17:28:40.103Z,99643.81
2022-09-17T17:31:08.256Z,99646.19
2022-09-17T17:33:36.477Z,99640.31
2022-09-17T17:36:08.334Z,99644.50
2022-09-17T17:38:37.316Z,99646.34
2022-09-17T17:41:07.232Z,99645.34
2022-09-17T17:43:35.545Z,99647.34
2022-09-17T17:46:06.825Z,99652.66
2022-09-17T17:48:34.983Z,99647.88
2022-09-17T17:51:06.271Z,99639.16
2022-09-17T17:53:34.385Z,99642.13
2022-09-17T17:56:05.803Z,99645.94
2022-09-17T17:58:34.506Z,99651.53
2022-09-17T18:01:10.767Z,99652.13
2022-09-17T18:03:39.025Z,99646.50
2022-09-17T18:06:09.063Z,99649.84
2022-09-17T18:08:38.247Z,99646.03
2022-09-17T18:11:08.208Z,99648.31
2022-09-17T18:13:37.064Z,99651.28
2022-09-17T18:16:07.571Z,99661.38
2022-09-17T18:18:43.521Z,99650.44
2022-09-17T18:21:15.973Z,99656.31
2022-09-17T18:23:45.030Z,99645.94
2022-09-17T18:26:14.810Z,99644.09
2022-09-17T18:28:42.821Z,99651.41
2022-09-17T18:31:20.822Z,99647.16
2022-09-17T18:33:57.853Z,99643.13
2022-09-17T18:36:29.706Z,99643.13
2022-09-17T18:39:11.071Z,99637.06
2022-09-17T18:41:49.767Z,99646.47
2022-09-17T18:44:19.003Z,99648.72
2022-09-17T18:46:48.027Z,99646.31
2022-09-17T18:49:16.630Z,99638.72
2022-09-17T18:51:45.994Z,99644.50
2022-09-17T18:54:14.122Z,99647.72
2022-09-17T18:56:42.557Z,99639.44
2022-09-17T18:59:11.217Z,99640.56
2022-09-17T19:01:39.634Z,99647.88
2022-09-17T19:04:08.346Z,99649.41
2022-09-17T19:06:36.278Z,99640.22
2022-09-17T19:09:06.318Z,99641.22
2022-09-17T19:11:36.121Z,99639.09
2022-09-17T19:14:04.254Z,99634.63
2022-09-17T19:16:32.236Z,99631.25
2022-09-17T19:19:00.499Z,99638.53
2022-09-17T19:21:28.385Z,99631.53
2022-09-17T19:23:56.287Z,99625.06
2022-09-17T19:26:27.393Z,99633.34
2022-09-17T19:28:57.760Z,99626.59
2022-09-17T19:31:27.065Z,99642.63
2022-09-17T19:33:55.349Z,99643.25
2022-09-17T19:36:23.288Z,99633.94
2022-09-17T19:38:51.531Z,99637.31
2022-09-17T19:41:23.223Z,99636.06
2022-09-17T19:43:54.454Z,99639.81
2022-09-17T19:46:24.050Z,99638.59
2022-09-17T19:48:54.514Z,99637.31
2022-09-17T19:51:24.140Z,99635.91
2022-09-17T19:53:52.509Z,99630.97
2022-09-17T19:56:22.262Z,99624.28
2022-09-17T19:58:50.407Z,99628.22
2022-09-17T20:01:22.188Z,99627.37
2022-09-17T20:03:50.383Z,99634.75
2022-09-17T20:06:20.696Z,99637.16
2022-09-17T20:08:50.132Z,99636.47
2022-09-17T20:11:22.649Z,99640.88
2022-09-17T20:13:50.721Z,99640.56
2022-09-17T20:16:22.035Z,99642.84
2022-09-17T20:18:50.337Z,99640.91
2022-09-17T20:21:20.131Z,99646.16
2022-09-17T20:23:48.363Z,99645.44
2022-09-17T20:26:16.993Z,99639.94
2022-09-17T20:28:45.942Z,99642.28
2022-09-17T20:31:16.286Z,99633.00
2022-09-17T20:33:46.665Z,99628.22
2022-09-17T20:36:17.009Z,99633.28
2022-09-17T20:41:34.341Z,99641.94
2022-09-17T20:44:02.427Z,99650.37
2022-09-17T20:46:30.445Z,99643.47
2022-09-17T20:49:00.149Z,99653.69
2022-09-17T20:51:29.551Z,99641.09
2022-09-17T20:53:58.033Z,99642.25
2022-09-17T20:56:28.255Z,99649.00
2022-09-17T20:59:03.930Z,99649.25
2022-09-17T21:01:34.436Z,99645.25
2022-09-17T21:04:05.936Z,99647.84
2022-09-17T21:06:35.801Z,99651.09
2022-09-17T21:09:04.278Z,99649.72
2022-09-17T21:11:32.237Z,99643.09
2022-09-17T21:14:00.874Z,99657.13
2022-09-17T21:16:29.226Z,99653.75
2022-09-17T21:18:58.201Z,99653.09
2022-09-17T21:21:28.336Z,99651.19
2022-09-17T21:24:01.076Z,99641.97
2022-09-17T21:26:29.912Z,99644.31
2022-09-17T21:28:58.391Z,99648.09
2022-09-17T21:31:32.099Z,99646.53
2022-09-17T21:34:02.438Z,99646.16
2022-09-17T21:36:33.239Z,99650.66
2022-09-17T21:39:03.828Z,99650.37
2022-09-17T21:41:32.527Z,99642.19
2022-09-17T21:44:00.449Z,99628.53
2022-09-17T21:46:30.494Z,99621.28
2022-09-17T21:49:02.080Z,99634.22
2022-09-17T21:51:34.024Z,99631.72
2022-09-17T21:54:04.075Z,99643.75
2022-09-17T21:56:32.932Z,99639.94
2022-09-17T21:59:02.721Z,99657.84
2022-09-17T22:01:32.692Z,99642.44
2022-09-17T22:04:02.065Z,99655.75
2022-09-17T22:06:32.929Z,99665.25
2022-09-17T22:09:02.779Z,99660.63
2022-09-17T22:11:33.033Z,99665.53
2022-09-17T22:14:05.127Z,99668.00
2022-09-17T22:16:35.937Z,99670.50
2022-09-17T22:19:05.480Z,99659.16
2022-09-17T22:21:36.435Z,99661.59
2022-09-17T22:24:09.187Z,99661.00
2022-09-17T22:26:39.335Z,99667.31
2022-09-17T22:29:09.933Z,99660.50
2022-09-17T22:31:37.915Z,99664.97
2022-09-17T22:34:08.857Z,99663.84
2022-09-17T22:36:39.537Z,99649.53
2022-09-17T22:39:11.052Z,99654.81
2022-09-17T22:41:45.850Z,99648.88
2022-09-17T22:44:17.707Z,99660.38
2022-09-17T22:46:47.614Z,99660.13
2022-09-17T22:49:16.861Z,99661.59
2022-09-17T22:51:47.594Z,99660.66
2022-09-17T22:54:18.318Z,99660.28
2022-09-17T22:56:49.407Z,99666.41
2022-09-17T22:59:18.858Z,99661.66
2022-09-17T23:01:47.372Z,99665.87
2022-09-17T23:04:15.463Z,99669.19
2022-09-17T23:06:46.450Z,99663.69
2022-09-17T23:09:14.950Z,99666.47
2022-09-17T23:11:43.440Z,99659.00
2022-09-17T23:14:14.167Z,99676.72
2022-09-17T23:16:44.358Z,99678.69
2022-09-17T23:19:12.753Z,99671.34
2022-09-17T23:21:41.471Z,99666.25
2022-09-17T23:24:14.765Z,99676.72
2022-09-17T23:26:42.861Z,99679.81
2022-09-17T23:29:11.372Z,99677.22
2022-09-17T23:31:40.166Z,99676.22
2022-09-17T23:34:14.516Z,99680.81
2022-09-17T23:36:42.611Z,99694.59
2022-09-17T23:39:16.166Z,99687.87
2022-09-17T23:41:45.454Z,99678.88
2022-09-17T23:44:16.270Z,99699.00
2022-09-17T23:46:46.210Z,99690.34
2022-09-17T23:49:16.141Z,99684.66
2022-09-17T23:51:47.355Z,99701.13
2022-09-17T23:54:18.384Z,99694.31
2022-09-17T23:56:46.298Z,99697.25
2022-09-17T23:59:14.178Z,99692.56
